Uaua, Brazil
Current Conditions -  °F | °C
As of 2:00 PM on Sunday 23 Nov 2014 (Local Time) from SBPL Reporting Station
Broken Clouds Broken Clouds  
Wind Chill: 91°   Ceiling: 3000
Heat Index: 95°   Visibility: 6mi
Dew Point: 68°   Wind: 9mph
Humidity: 46%   Direction: 50°NE
Pressure: 29.88"   Gusts: NA
Location:  9.84°S, 39.48°W
Report Text: SBPL 231700Z 05008KT 9999 BKN030 33/20 Q1012
Loading
Personal Weather Stations






























Interactive Weather Map New forecast layout! Learn more

10-Day Weather Forecast

Advertisements
Track Severe Weather on mobile